Time;durP1;ratioP1;P1;durP2;ratioP2;P2;SDS_P1;SDS_P2;PMS_P1;PMS_P2;Temp;Humidity;BMP_temperature;BMP_pressure;BME280_temperature;BME280_humidity;BME280_pressure;Samples;Min_cycle;Max_cycle;Signal;HPM_P1;HPM_P2
2022/08/01 00:01:24;;;;;;;1.83;1.27;;;22.40;99.60;;;;;;5068570;28;20040;-81
2022/08/01 00:03:50;;;;;;;2.78;1.35;;;22.40;99.70;;;;;;5069386;28;20543;-80
2022/08/01 00:06:16;;;;;;;2.08;1.38;;;22.40;99.80;;;;;;5068954;28;20048;-80
2022/08/01 00:08:41;;;;;;;2.67;1.50;;;22.40;99.90;;;;;;5065971;28;20148;-80
2022/08/01 00:11:09;;;;;;;2.40;1.55;;;22.30;99.90;;;;;;5079437;28;20045;-80
2022/08/01 00:13:35;;;;;;;1.92;1.25;;;22.40;99.90;;;;;;5081695;28;20041;-80
2022/08/01 00:16:01;;;;;;;1.50;0.98;;;22.30;99.90;;;;;;5079565;28;20111;-80
2022/08/01 00:18:26;;;;;;;2.58;1.52;;;22.30;99.90;;;;;;5079346;28;20134;-80
2022/08/01 00:20:52;;;;;;;2.75;1.38;;;22.20;99.90;;;;;;5075253;28;20060;-80
2022/08/01 00:23:18;;;;;;;2.00;1.42;;;22.20;99.90;;;;;;5067691;28;20106;-80
2022/08/01 00:25:47;;;;;;;6.38;2.70;;;22.20;99.90;;;;;;5068389;28;20075;-80
2022/08/01 00:28:13;;;;;;;1.60;1.20;;;22.20;99.90;;;;;;5068127;28;20052;-80
2022/08/01 00:30:39;;;;;;;2.60;1.30;;;22.30;99.90;;;;;;5068048;28;20039;-80
2022/08/01 00:33:05;;;;;;;1.92;1.27;;;22.20;99.90;;;;;;5065624;28;20049;-80
2022/08/01 00:35:30;;;;;;;1.98;1.50;;;22.20;99.90;;;;;;5066086;28;20072;-80
2022/08/01 00:37:56;;;;;;;1.58;1.10;;;22.20;99.90;;;;;;5096337;27;20045;-80
2022/08/01 00:40:22;;;;;;;2.92;1.38;;;22.20;99.90;;;;;;5064105;28;20048;-80
2022/08/01 00:42:48;;;;;;;2.25;1.20;;;22.20;99.90;;;;;;5068425;28;21707;-80
2022/08/01 00:45:13;;;;;;;2.08;1.30;;;22.20;99.90;;;;;;5066724;28;20037;-79
2022/08/01 00:47:39;;;;;;;3.70;1.52;;;22.20;99.90;;;;;;5098368;27;20506;-80
2022/08/01 00:50:08;;;;;;;2.17;1.23;;;22.20;99.90;;;;;;5081968;28;20085;-80
2022/08/01 00:52:35;;;;;;;1.85;1.30;;;22.20;99.90;;;;;;5066945;28;20044;-81
2022/08/01 00:55:01;;;;;;;2.45;1.38;;;22.20;99.90;;;;;;5064635;28;20072;-80
2022/08/01 00:57:28;;;;;;;3.65;1.27;;;22.20;99.90;;;;;;5067080;28;20453;-80
2022/08/01 00:59:53;;;;;;;2.53;1.48;;;22.20;99.90;;;;;;5068667;28;20041;-80
2022/08/01 01:02:19;;;;;;;2.65;1.20;;;22.20;99.90;;;;;;5066664;28;20040;-80
2022/08/01 01:04:45;;;;;;;1.85;1.15;;;22.10;99.90;;;;;;5067849;28;20489;-80
2022/08/01 01:07:22;;;;;;;2.28;1.27;;;22.10;99.90;;;;;;5064791;28;20055;-79
2022/08/01 01:10:00;;;;;;;2.60;1.10;;;22.10;99.90;;;;;;5066927;28;20200;-80
2022/08/01 01:12:35;;;;;;;3.28;1.40;;;22.10;99.90;;;;;;5099148;27;20029;-80
2022/08/01 01:15:26;;;;;;;1.80;1.10;;;22.10;99.90;;;;;;5099433;27;20175;-80
2022/08/01 01:18:15;;;;;;;2.10;1.15;;;22.10;99.90;;;;;;5065471;28;20041;-81
2022/08/01 01:20:45;;;;;;;1.92;1.45;;;22.00;99.90;;;;;;5027294;28;20057;-80
2022/08/01 01:23:33;;;;;;;1.98;1.17;;;22.00;99.90;;;;;;5064802;28;20048;-80
2022/08/01 01:26:26;;;;;;;2.40;1.25;;;22.00;99.90;;;;;;5064794;28;20043;-80
2022/08/01 01:29:00;;;;;;;1.83;1.60;;;22.00;99.90;;;;;;5064179;28;20056;-80
2022/08/01 01:31:27;;;;;;;2.03;1.20;;;22.00;99.90;;;;;;5066969;28;20420;-80
2022/08/01 01:33:55;;;;;;;4.03;1.48;;;22.00;99.90;;;;;;5067240;28;20075;-80
2022/08/01 01:36:24;;;;;;;1.92;0.93;;;21.90;99.90;;;;;;5067762;28;21249;-81
2022/08/01 01:38:50;;;;;;;2.97;1.88;;;21.90;99.90;;;;;;5067662;28;20044;-80
2022/08/01 01:41:18;;;;;;;2.38;1.30;;;21.90;99.90;;;;;;5065687;28;20049;-80
2022/08/01 01:43:46;;;;;;;2.10;1.15;;;21.90;99.90;;;;;;5065866;28;20037;-80
2022/08/01 01:46:15;;;;;;;3.50;1.50;;;21.90;99.90;;;;;;5065884;28;20825;-80
2022/08/01 01:48:44;;;;;;;3.45;1.30;;;21.90;99.90;;;;;;5066808;28;20493;-80
2022/08/01 01:51:11;;;;;;;4.13;1.48;;;21.80;99.90;;;;;;5098325;27;20048;-80
2022/08/01 01:53:39;;;;;;;1.75;1.42;;;21.80;99.90;;;;;;5100446;27;20061;-79
2022/08/01 01:56:05;;;;;;;2.15;1.33;;;21.80;99.90;;;;;;5069127;28;20107;-79
2022/08/01 01:58:34;;;;;;;1.65;0.90;;;21.70;99.90;;;;;;5064173;28;20075;-80
2022/08/01 02:01:02;;;;;;;1.88;1.40;;;21.70;99.90;;;;;;5094288;27;20063;-80
2022/08/01 02:03:28;;;;;;;2.78;1.70;;;21.70;99.90;;;;;;5064531;28;20044;-80
2022/08/01 02:05:55;;;;;;;1.83;1.27;;;21.70;99.90;;;;;;5066746;28;20038;-80
2022/08/01 02:08:23;;;;;;;1.73;1.25;;;21.60;99.90;;;;;;5063787;28;20086;-80
2022/08/01 02:13:40;;;;;;;3.42;1.50;;;21.60;99.90;;;;;;5068031;28;20047;-80
2022/08/01 02:16:08;;;;;;;3.47;1.70;;;21.50;99.90;;;;;;5065933;28;20052;-80
2022/08/01 02:18:33;;;;;;;3.22;1.23;;;21.50;99.90;;;;;;5066530;28;20049;-80
2022/08/01 02:21:03;;;;;;;2.22;1.60;;;21.50;99.90;;;;;;5064977;28;20064;-80
2022/08/01 02:23:35;;;;;;;1.33;1.00;;;21.50;99.90;;;;;;5099576;27;20057;-81
2022/08/01 02:26:06;;;;;;;2.10;1.38;;;21.50;99.90;;;;;;5065898;28;20513;-80
2022/08/01 02:28:37;;;;;;;2.08;1.63;;;21.50;99.90;;;;;;5065408;28;20045;-81
2022/08/01 02:31:09;;;;;;;2.70;1.20;;;21.50;99.90;;;;;;5063565;28;20037;-80
2022/08/01 02:33:44;;;;;;;2.75;1.67;;;21.50;99.90;;;;;;5066943;28;20045;-80
2022/08/01 02:36:12;;;;;;;3.05;1.90;;;21.50;99.90;;;;;;5065926;28;20524;-81
2022/08/01 02:38:41;;;;;;;6.10;1.70;;;21.50;99.90;;;;;;5082611;28;20049;-80
2022/08/01 02:41:16;;;;;;;6.72;1.90;;;21.50;99.90;;;;;;5064970;28;20029;-80
2022/08/01 02:43:47;;;;;;;2.08;1.42;;;21.50;99.90;;;;;;5095455;27;20739;-79
2022/08/01 02:46:18;;;;;;;3.05;1.52;;;21.50;99.90;;;;;;5063387;28;20497;-80
2022/08/01 02:48:45;;;;;;;3.28;2.03;;;21.50;99.90;;;;;;5064610;28;20044;-80
2022/08/01 02:51:13;;;;;;;3.10;1.70;;;21.50;99.90;;;;;;5063734;28;20048;-79
2022/08/01 02:53:41;;;;;;;3.10;1.73;;;21.50;99.90;;;;;;5065652;28;20602;-80
2022/08/01 02:56:09;;;;;;;5.45;1.98;;;21.50;99.90;;;;;;5066552;28;20044;-80
2022/08/01 02:58:40;;;;;;;4.07;1.65;;;21.40;99.90;;;;;;5095922;27;20049;-80
2022/08/01 03:01:07;;;;;;;2.73;1.30;;;21.50;99.90;;;;;;5059933;28;20439;-80
2022/08/01 03:03:34;;;;;;;4.32;2.00;;;21.40;99.90;;;;;;5064996;28;20080;-80
2022/08/01 03:06:01;;;;;;;3.53;1.30;;;21.40;99.90;;;;;;5067476;28;20040;-80
2022/08/01 03:08:29;;;;;;;2.70;1.70;;;21.40;99.90;;;;;;5063681;28;20060;-80
2022/08/01 03:10:56;;;;;;;2.65;1.77;;;21.40;99.90;;;;;;5065535;28;20082;-80
2022/08/01 03:13:23;;;;;;;2.45;1.60;;;21.30;99.90;;;;;;5064221;28;20471;-80
2022/08/01 03:15:50;;;;;;;3.15;1.30;;;21.30;99.90;;;;;;5096779;27;20577;-79
2022/08/01 03:18:18;;;;;;;2.95;1.70;;;21.30;99.90;;;;;;5065959;28;20122;-79
2022/08/01 03:20:45;;;;;;;1.98;1.50;;;21.20;99.90;;;;;;5066787;28;20040;-80
2022/08/01 03:23:12;;;;;;;2.70;1.40;;;21.20;99.90;;;;;;5068144;28;20048;-79
2022/08/01 03:25:43;;;;;;;4.75;1.80;;;21.20;99.90;;;;;;5071483;28;20044;-80
2022/08/01 03:28:11;;;;;;;3.58;2.00;;;21.20;99.90;;;;;;5075680;28;20059;-80
2022/08/01 03:30:38;;;;;;;2.92;1.50;;;21.30;99.90;;;;;;5077598;28;20421;-80
2022/08/01 03:33:04;;;;;;;3.85;1.65;;;21.20;99.90;;;;;;5078260;28;20044;-80
2022/08/01 03:35:53;;;;;;;4.22;2.03;;;21.30;99.90;;;;;;5080438;28;20048;-80
2022/08/01 03:38:23;;;;;;;2.78;1.70;;;21.30;99.90;;;;;;5068615;28;20942;-80
2022/08/01 03:41:15;;;;;;;3.35;1.52;;;21.30;99.90;;;;;;5084208;28;20041;-79
2022/08/01 03:43:49;;;;;;;1.70;1.33;;;21.40;99.90;;;;;;5064856;28;20515;-80
2022/08/01 03:46:29;;;;;;;3.28;1.42;;;21.30;99.90;;;;;;5070796;28;20120;-80
2022/08/01 03:49:00;;;;;;;3.05;1.70;;;21.30;99.90;;;;;;5067238;28;20049;-80
2022/08/01 03:51:27;;;;;;;3.47;1.52;;;21.40;99.90;;;;;;5100254;27;20091;-80
2022/08/01 03:53:55;;;;;;;2.55;1.77;;;21.30;99.90;;;;;;5067888;28;20703;-79
2022/08/01 03:56:21;;;;;;;3.45;1.55;;;21.40;99.90;;;;;;5066774;28;20056;-80
2022/08/01 03:58:48;;;;;;;1.65;1.25;;;21.40;99.90;;;;;;5065727;28;20625;-80
2022/08/01 04:01:14;;;;;;;1.70;1.20;;;21.40;99.90;;;;;;5063362;28;20033;-80
2022/08/01 04:03:41;;;;;;;1.85;1.50;;;21.30;99.90;;;;;;5064721;28;20045;-79
2022/08/01 04:06:10;;;;;;;3.03;1.63;;;21.30;99.90;;;;;;5065759;28;20041;-80
2022/08/01 04:08:38;;;;;;;1.50;1.20;;;21.30;99.90;;;;;;5063254;28;20056;-80
2022/08/01 04:11:04;;;;;;;1.85;1.60;;;21.30;99.90;;;;;;5098126;27;20048;-81
2022/08/01 04:13:33;;;;;;;1.67;1.00;;;21.30;99.90;;;;;;5067179;28;20538;-81
2022/08/01 04:15:59;;;;;;;3.22;1.42;;;21.30;99.90;;;;;;5078228;28;20039;-80
2022/08/01 04:18:25;;;;;;;2.03;1.38;;;21.20;99.90;;;;;;5096561;27;20562;-80
2022/08/01 04:20:50;;;;;;;1.80;1.15;;;21.20;99.90;;;;;;5064133;28;20092;-80
2022/08/01 04:23:20;;;;;;;3.08;1.40;;;21.20;99.90;;;;;;5065459;28;20048;-80
2022/08/01 04:25:49;;;;;;;2.40;1.38;;;21.20;99.90;;;;;;5066825;28;20067;-80
2022/08/01 04:28:17;;;;;;;6.35;1.63;;;21.20;99.90;;;;;;5099285;27;20111;-80
2022/08/01 04:30:46;;;;;;;3.85;1.83;;;21.20;99.90;;;;;;5083776;28;20045;-80
2022/08/01 04:33:15;;;;;;;3.55;1.63;;;21.20;99.90;;;;;;5066769;28;20052;-80
2022/08/01 04:35:45;;;;;;;4.18;2.28;;;21.20;99.90;;;;;;5101816;27;20037;-80
2022/08/01 04:38:16;;;;;;;1.77;1.30;;;21.20;99.90;;;;;;5068003;28;20048;-80
2022/08/01 04:40:45;;;;;;;2.03;1.20;;;21.20;99.90;;;;;;5065145;28;20750;-80
2022/08/01 04:43:11;;;;;;;2.45;1.13;;;21.10;99.90;;;;;;5068049;28;20043;-80
2022/08/01 04:45:38;;;;;;;3.50;1.60;;;21.10;99.90;;;;;;5065077;28;20041;-79
2022/08/01 04:48:09;;;;;;;2.55;1.50;;;21.10;99.90;;;;;;5062964;28;20045;-80
2022/08/01 04:50:36;;;;;;;4.13;1.80;;;21.10;99.90;;;;;;5062576;28;20094;-80
2022/08/01 04:53:02;;;;;;;2.13;1.70;;;21.10;99.90;;;;;;5065401;28;20565;-80
2022/08/01 04:55:29;;;;;;;4.93;1.98;;;21.10;99.90;;;;;;5096463;27;20056;-81
2022/08/01 04:57:55;;;;;;;3.08;1.45;;;21.10;99.90;;;;;;5064163;28;20052;-81
2022/08/01 05:00:20;;;;;;;2.42;1.70;;;21.20;99.90;;;;;;5066405;28;20052;-82
2022/08/01 05:02:46;;;;;;;2.15;1.40;;;21.20;99.90;;;;;;5063235;28;20048;-81
2022/08/01 05:05:12;;;;;;;2.60;1.40;;;21.20;99.90;;;;;;5067683;28;20060;-81
2022/08/01 05:07:38;;;;;;;2.35;1.45;;;21.20;99.90;;;;;;5064197;28;20060;-80
2022/08/01 05:10:07;;;;;;;3.83;1.90;;;21.20;99.90;;;;;;5062991;28;20041;-80
2022/08/01 05:12:33;;;;;;;2.83;1.40;;;21.20;99.90;;;;;;5065133;28;20045;-80
2022/08/01 05:14:59;;;;;;;2.45;1.50;;;21.30;99.90;;;;;;5096389;27;20105;-81
2022/08/01 05:17:28;;;;;;;1.55;1.00;;;21.30;99.90;;;;;;5082632;28;20431;-82
2022/08/01 05:19:54;;;;;;;1.58;1.30;;;21.40;99.90;;;;;;5070408;28;20142;-81
2022/08/01 05:22:19;;;;;;;2.35;1.13;;;21.40;99.90;;;;;;5069390;28;20426;-81
2022/08/01 05:24:46;;;;;;;1.60;1.20;;;21.50;99.90;;;;;;5069303;28;20515;-82
2022/08/01 05:27:13;;;;;;;2.45;1.40;;;21.50;99.90;;;;;;5069672;28;20052;-82
2022/08/01 05:29:39;;;;;;;3.92;1.60;;;21.40;99.90;;;;;;5068753;28;20052;-81
2022/08/01 05:32:05;;;;;;;1.67;1.23;;;21.50;99.90;;;;;;5069673;28;20091;-81
2022/08/01 05:34:31;;;;;;;2.33;1.58;;;21.50;99.90;;;;;;5069885;28;20408;-81
2022/08/01 05:36:56;;;;;;;4.68;1.60;;;21.60;99.90;;;;;;5072852;28;20045;-81
2022/08/01 05:39:22;;;;;;;2.13;1.10;;;21.60;99.90;;;;;;5071975;28;20037;-81
2022/08/01 05:41:48;;;;;;;2.03;1.50;;;21.60;99.90;;;;;;5070394;28;20045;-82
2022/08/01 05:44:13;;;;;;;2.30;0.90;;;21.60;99.90;;;;;;5063471;28;20079;-81
2022/08/01 05:46:40;;;;;;;2.10;1.30;;;21.70;99.90;;;;;;5062418;28;20045;-81
2022/08/01 05:49:06;;;;;;;1.85;1.10;;;21.70;99.90;;;;;;5065471;28;20580;-80
2022/08/01 05:51:33;;;;;;;3.10;1.40;;;21.70;99.90;;;;;;5061538;28;20045;-80
2022/08/01 05:53:59;;;;;;;2.15;1.55;;;21.70;99.90;;;;;;5060267;28;20549;-80
2022/08/01 05:56:25;;;;;;;4.47;1.20;;;21.70;99.90;;;;;;5061809;28;20137;-79
2022/08/01 05:58:51;;;;;;;1.75;1.00;;;21.70;99.90;;;;;;5064624;28;20072;-79
2022/08/01 06:01:18;;;;;;;3.03;1.25;;;21.70;99.90;;;;;;5061023;28;20049;-80
2022/08/01 06:03:44;;;;;;;2.97;1.38;;;21.70;99.90;;;;;;5062226;28;20131;-79
2022/08/01 06:06:10;;;;;;;2.58;1.02;;;21.70;99.90;;;;;;5063017;28;20044;-79
2022/08/01 06:08:36;;;;;;;1.73;1.10;;;21.70;99.90;;;;;;5062485;28;20107;-79
2022/08/01 06:11:02;;;;;;;2.05;1.25;;;21.80;99.90;;;;;;5078742;28;20033;-80
2022/08/01 06:13:28;;;;;;;2.85;1.40;;;21.80;99.90;;;;;;5064568;28;20048;-79
2022/08/01 06:15:54;;;;;;;2.97;1.38;;;21.80;99.90;;;;;;5063668;28;20056;-80
2022/08/01 06:18:20;;;;;;;2.28;1.13;;;21.80;99.90;;;;;;5064485;28;20627;-80
2022/08/01 06:20:46;;;;;;;1.92;1.10;;;21.80;99.90;;;;;;5079425;28;20041;-80
2022/08/01 06:23:13;;;;;;;2.20;1.13;;;21.80;99.90;;;;;;5066567;28;20060;-79
2022/08/01 06:25:38;;;;;;;2.53;1.45;;;21.80;99.90;;;;;;5096239;27;20076;-80
2022/08/01 06:28:04;;;;;;;2.45;1.40;;;21.80;99.90;;;;;;5065164;28;20116;-80
2022/08/01 06:30:30;;;;;;;1.60;1.23;;;21.90;99.90;;;;;;5080824;28;20053;-81
2022/08/01 06:32:58;;;;;;;3.20;1.73;;;21.90;99.90;;;;;;5063342;28;20048;-81
2022/08/01 06:35:24;;;;;;;2.65;1.42;;;22.00;99.90;;;;;;5063761;28;20876;-80
2022/08/01 06:37:49;;;;;;;4.20;1.38;;;22.10;99.90;;;;;;5063243;28;20063;-80
2022/08/01 06:40:15;;;;;;;2.33;1.05;;;22.10;99.90;;;;;;5065855;28;20087;-80
2022/08/01 06:42:41;;;;;;;3.13;0.95;;;22.10;99.90;;;;;;5060975;28;20590;-80
2022/08/01 06:45:09;;;;;;;3.50;1.17;;;22.10;99.90;;;;;;5094838;27;20146;-80
2022/08/01 06:47:35;;;;;;;1.27;1.17;;;22.00;99.90;;;;;;5068475;28;20060;-82
2022/08/01 06:50:03;;;;;;;1.58;1.00;;;22.00;99.90;;;;;;5069946;28;20037;-81
2022/08/01 06:52:28;;;;;;;2.83;1.23;;;21.90;99.90;;;;;;5080672;28;20044;-82
2022/08/01 06:54:55;;;;;;;1.65;1.27;;;21.90;99.90;;;;;;5097728;28;20033;-81
2022/08/01 06:57:21;;;;;;;1.80;0.98;;;21.90;99.90;;;;;;5070556;28;20064;-78
2022/08/01 06:59:47;;;;;;;2.45;1.00;;;21.90;99.90;;;;;;5068889;28;20104;-78
2022/08/01 07:02:13;;;;;;;1.90;1.27;;;21.90;99.90;;;;;;5068210;28;20454;-78
2022/08/01 07:04:39;;;;;;;1.40;1.00;;;22.00;99.90;;;;;;5067027;28;20624;-77
2022/08/01 07:07:04;;;;;;;1.73;1.20;;;22.20;99.90;;;;;;5064357;28;20040;-77
2022/08/01 07:09:30;;;;;;;1.25;0.90;;;22.20;99.90;;;;;;5064826;28;20075;-77
2022/08/01 07:11:56;;;;;;;2.92;1.13;;;22.20;99.90;;;;;;5066288;28;20541;-77
2022/08/01 07:14:22;;;;;;;1.80;1.05;;;22.30;99.90;;;;;;5062954;28;20993;-77
2022/08/01 07:16:49;;;;;;;2.67;1.67;;;22.30;99.90;;;;;;5063313;28;20553;-78
2022/08/01 07:19:15;;;;;;;1.75;1.05;;;22.30;99.90;;;;;;5062114;28;20079;-77
2022/08/01 07:21:41;;;;;;;4.35;1.25;;;22.30;99.90;;;;;;5065462;28;20086;-77
2022/08/01 07:24:09;;;;;;;3.38;1.85;;;22.30;99.90;;;;;;5062862;28;20537;-77
2022/08/01 07:26:35;;;;;;;2.72;1.15;;;22.30;99.90;;;;;;5062587;28;20053;-77
2022/08/01 07:29:02;;;;;;;2.17;1.30;;;22.40;99.90;;;;;;5080324;28;20037;-77
2022/08/01 07:31:28;;;;;;;0.80;0.73;;;22.50;99.90;;;;;;5064914;28;20044;-75
2022/08/01 07:33:54;;;;;;;6.68;1.58;;;22.50;99.90;;;;;;5065131;28;20773;-75
2022/08/01 07:36:20;;;;;;;1.75;1.13;;;22.50;99.90;;;;;;5065976;28;20049;-78
2022/08/01 07:38:46;;;;;;;1.88;1.15;;;22.40;99.90;;;;;;5048969;28;20033;-82
2022/08/01 07:41:12;;;;;;;1.90;1.02;;;22.30;99.90;;;;;;5063152;28;20682;-80
2022/08/01 07:43:39;;;;;;;1.40;1.05;;;22.50;99.90;;;;;;5098560;27;20135;-81
2022/08/01 07:46:06;;;;;;;1.98;1.00;;;22.60;99.90;;;;;;5069721;28;20038;-82
2022/08/01 07:48:32;;;;;;;2.88;1.17;;;22.70;99.90;;;;;;5101793;27;20072;-82
2022/08/01 07:50:58;;;;;;;2.47;1.20;;;22.70;99.90;;;;;;5069612;28;20044;-82
2022/08/01 07:53:23;;;;;;;2.08;1.17;;;22.70;99.90;;;;;;5068999;28;20084;-82
2022/08/01 07:55:49;;;;;;;2.13;0.90;;;22.60;99.90;;;;;;5103463;27;20183;-82
2022/08/01 07:58:16;;;;;;;2.28;1.10;;;22.40;99.90;;;;;;5072041;28;20495;-82
2022/08/01 08:00:42;;;;;;;1.90;1.15;;;22.50;99.90;;;;;;5088499;28;20044;-82
2022/08/01 08:03:07;;;;;;;2.97;1.20;;;22.50;99.90;;;;;;5058191;28;20040;-83
2022/08/01 08:05:34;;;;;;;2.50;1.08;;;22.60;99.90;;;;;;5073019;28;20103;-82
2022/08/01 08:08:02;;;;;;;1.48;0.80;;;22.60;99.90;;;;;;5088462;28;20489;-82
2022/08/01 08:10:32;;;;;;;1.83;0.80;;;22.80;99.90;;;;;;5072911;28;20560;-82
2022/08/01 08:12:58;;;;;;;1.77;1.15;;;22.90;99.90;;;;;;5073763;28;20049;-82
2022/08/01 08:15:24;;;;;;;1.50;0.98;;;23.00;99.90;;;;;;5071436;28;20051;-83
2022/08/01 08:17:50;;;;;;;2.88;1.17;;;23.20;99.90;;;;;;5072359;28;20053;-82
2022/08/01 08:20:16;;;;;;;2.08;1.10;;;23.20;99.90;;;;;;5070083;28;20036;-82
2022/08/01 08:22:42;;;;;;;1.73;1.20;;;23.30;99.90;;;;;;5068762;28;20552;-82
2022/08/01 08:25:11;;;;;;;3.17;1.38;;;23.40;99.90;;;;;;5106027;27;20041;-82
2022/08/01 08:27:37;;;;;;;2.58;1.20;;;23.50;99.90;;;;;;5072112;28;20119;-82
2022/08/01 08:30:07;;;;;;;2.47;1.50;;;23.60;99.90;;;;;;5072110;28;20179;-82
2022/08/01 08:32:33;;;;;;;6.18;1.40;;;23.60;99.90;;;;;;5072809;28;20051;-82
2022/08/01 08:34:59;;;;;;;4.72;1.40;;;23.70;99.90;;;;;;5069418;28;20537;-82
2022/08/01 08:37:24;;;;;;;2.70;1.08;;;23.90;99.90;;;;;;5069387;28;20140;-82
2022/08/01 08:39:50;;;;;;;3.10;1.50;;;24.00;99.90;;;;;;5069570;28;20032;-83
2022/08/01 08:42:16;;;;;;;1.33;1.08;;;24.10;99.90;;;;;;5073973;28;21061;-82
2022/08/01 08:44:42;;;;;;;1.65;0.95;;;24.10;99.90;;;;;;5071274;28;20044;-82
2022/08/01 08:47:11;;;;;;;2.33;0.90;;;24.00;99.90;;;;;;5071501;28;20072;-83
2022/08/01 08:49:38;;;;;;;2.53;1.23;;;24.00;99.90;;;;;;5105426;27;20528;-83
2022/08/01 08:52:04;;;;;;;1.10;0.80;;;24.00;99.90;;;;;;5067988;28;20215;-81
2022/08/01 08:54:32;;;;;;;1.75;1.00;;;24.00;99.90;;;;;;5070233;28;20516;-82
2022/08/01 08:56:59;;;;;;;2.10;1.25;;;24.00;99.90;;;;;;5068580;28;20505;-81
2022/08/01 08:59:26;;;;;;;1.60;1.05;;;24.00;99.90;;;;;;5070252;28;20051;-82
2022/08/01 09:01:52;;;;;;;2.65;1.35;;;24.00;99.90;;;;;;5068308;28;20615;-83
2022/08/01 09:04:20;;;;;;;1.98;1.05;;;23.80;99.90;;;;;;5103803;27;20033;-82
2022/08/01 09:06:46;;;;;;;2.33;1.10;;;23.80;99.90;;;;;;5103176;27;20581;-81
2022/08/01 09:09:12;;;;;;;1.98;1.45;;;23.70;99.90;;;;;;5069275;28;20132;-82
2022/08/01 09:11:38;;;;;;;2.38;1.38;;;23.60;99.90;;;;;;5069756;28;20076;-81
2022/08/01 09:14:22;;;;;;;1.70;1.35;;;23.60;99.90;;;;;;5069799;28;20097;-82
2022/08/01 09:17:03;;;;;;;2.30;1.33;;;23.60;99.90;;;;;;5068708;28;20094;-82
2022/08/01 09:19:38;;;;;;;2.65;1.20;;;23.80;99.90;;;;;;5069069;28;20136;-82
2022/08/01 09:22:13;;;;;;;2.10;1.23;;;23.90;99.90;;;;;;5067310;28;20051;-80
2022/08/01 09:24:40;;;;;;;1.83;1.23;;;23.90;99.90;;;;;;5070159;28;20044;-82
2022/08/01 09:27:20;;;;;;;2.50;1.15;;;23.90;99.90;;;;;;5070614;28;20044;-81
2022/08/01 09:29:46;;;;;;;2.50;1.02;;;23.90;99.90;;;;;;5068444;28;20041;-81
2022/08/01 09:32:12;;;;;;;4.07;1.20;;;24.00;99.90;;;;;;5066117;28;20177;-81
2022/08/01 09:34:37;;;;;;;3.60;1.30;;;23.90;99.90;;;;;;5065194;28;20103;-81
2022/08/01 09:37:05;;;;;;;1.83;1.20;;;23.90;99.90;;;;;;5099984;27;20490;-81
2022/08/01 09:39:39;;;;;;;3.95;1.13;;;23.90;99.90;;;;;;5068641;28;20044;-81
2022/08/01 09:42:22;;;;;;;2.20;0.80;;;23.90;99.90;;;;;;5067793;28;20037;-81
2022/08/01 09:44:49;;;;;;;1.70;1.17;;;24.10;99.90;;;;;;5068207;28;20041;-81
2022/08/01 09:47:16;;;;;;;1.25;1.00;;;24.20;99.90;;;;;;5099603;27;20068;-81
2022/08/01 09:49:43;;;;;;;1.58;1.00;;;24.30;99.90;;;;;;5069633;28;20605;-81
2022/08/01 09:52:21;;;;;;;3.22;1.30;;;24.30;99.90;;;;;;5068409;28;20045;-81
2022/08/01 09:54:59;;;;;;;1.15;0.93;;;24.30;99.90;;;;;;5065505;28;20045;-81
2022/08/01 09:57:25;;;;;;;2.30;1.42;;;24.20;99.90;;;;;;5069590;28;20044;-81
2022/08/01 09:59:57;;;;;;;3.67;1.27;;;24.20;99.90;;;;;;5067956;28;20033;-82
2022/08/01 10:02:34;;;;;;;;;;;24.20;99.90;;;;;;5066079;28;20037;-81
2022/08/01 10:05:02;;;;;;;3.10;1.20;;;24.20;99.90;;;;;;5069712;28;20082;-81
2022/08/01 10:07:28;;;;;;;1.98;1.45;;;24.20;99.90;;;;;;5053743;28;20493;-81
2022/08/01 10:09:54;;;;;;;3.28;1.08;;;24.30;99.90;;;;;;5067166;28;20040;-81
2022/08/01 10:12:23;;;;;;;3.42;1.10;;;24.30;99.90;;;;;;5103073;27;20095;-84
2022/08/01 10:14:50;;;;;;;3.25;1.23;;;24.40;99.90;;;;;;5068306;28;20577;-81
2022/08/01 10:17:19;;;;;;;2.45;1.48;;;24.40;99.90;;;;;;5072985;28;20550;-81
2022/08/01 10:19:46;;;;;;;1.02;0.82;;;24.50;99.90;;;;;;5072727;28;20100;-81
2022/08/01 10:22:16;;;;;;;1.58;0.95;;;24.50;99.90;;;;;;5083844;28;20099;-81
2022/08/01 10:24:44;;;;;;;1.33;1.00;;;24.60;99.90;;;;;;5083297;28;20048;-81
2022/08/01 10:27:12;;;;;;;2.00;0.82;;;24.70;99.90;;;;;;5087924;28;20037;-81
2022/08/01 10:29:45;;;;;;;1.30;1.00;;;24.90;99.90;;;;;;5072392;28;20052;-82
2022/08/01 10:32:11;;;;;;;2.08;1.23;;;24.90;99.90;;;;;;5075068;28;20047;-81
2022/08/01 10:34:38;;;;;;;0.90;0.80;;;25.00;99.90;;;;;;5073465;28;20033;-81
2022/08/01 10:37:05;;;;;;;1.27;0.95;;;25.10;99.90;;;;;;5074979;28;20111;-81
2022/08/01 10:39:32;;;;;;;1.35;1.05;;;25.10;99.90;;;;;;5072173;28;20588;-81
2022/08/01 10:41:59;;;;;;;5.63;1.10;;;25.00;99.90;;;;;;5070400;28;20117;-81
2022/08/01 10:44:26;;;;;;;3.28;1.15;;;25.10;99.90;;;;;;5073173;28;20045;-81
2022/08/01 10:46:59;;;;;;;1.75;1.10;;;25.30;99.90;;;;;;5074147;28;20044;-80
2022/08/01 10:49:30;;;;;;;1.92;0.90;;;25.20;99.90;;;;;;5071891;28;20603;-80
2022/08/01 10:51:56;;;;;;;0.98;0.80;;;25.20;99.90;;;;;;5072655;28;20040;-80
2022/08/01 10:54:26;;;;;;;1.25;0.85;;;25.30;99.90;;;;;;5057010;28;20045;-80
2022/08/01 10:56:52;;;;;;;1.58;1.27;;;25.30;99.90;;;;;;5069664;28;20036;-80
2022/08/01 10:59:28;;;;;;;1.55;1.38;;;25.40;99.90;;;;;;5067918;28;20067;-80
2022/08/01 11:02:02;;;;;;;1.50;1.40;;;25.50;99.60;;;;;;5102964;27;20148;-80
2022/08/01 11:04:47;;;;;;;1.75;0.98;;;25.60;99.40;;;;;;5071262;28;20041;-80
2022/08/01 11:07:34;;;;;;;1.05;0.80;;;25.60;99.10;;;;;;5070668;28;20130;-80
2022/08/01 11:10:10;;;;;;;4.05;0.88;;;25.50;99.20;;;;;;5072515;28;20083;-79
2022/08/01 11:12:41;;;;;;;3.75;1.02;;;25.50;98.60;;;;;;5083272;28;20060;-80
2022/08/01 11:15:09;;;;;;;2.63;0.98;;;25.40;98.70;;;;;;5066859;28;20122;-81
2022/08/01 11:17:36;;;;;;;1.85;1.10;;;25.50;98.60;;;;;;5083792;28;20574;-80
2022/08/01 11:20:07;;;;;;;1.05;0.88;;;25.60;98.40;;;;;;5070195;28;20072;-80
2022/08/01 11:23:10;;;;;;;1.02;0.90;;;25.70;98.30;;;;;;5071155;28;20045;-81
2022/08/01 11:25:36;;;;;;;3.67;1.00;;;25.80;98.50;;;;;;5070903;28;20117;-80
2022/08/01 11:28:14;;;;;;;3.03;0.90;;;25.80;99.90;;;;;;5066656;28;20122;-80
2022/08/01 11:30:44;;;;;;;3.40;1.30;;;25.50;97.50;;;;;;5099213;27;20049;-80
2022/08/01 11:33:12;;;;;;;1.23;1.00;;;25.50;97.60;;;;;;5067623;28;20045;-80
2022/08/01 11:35:58;;;;;;;2.67;1.02;;;25.60;97.60;;;;;;5088311;28;20562;-80
2022/08/01 11:38:29;;;;;;;2.10;1.13;;;25.60;97.50;;;;;;5104078;27;20041;-80
2022/08/01 11:41:11;;;;;;;;;;;25.50;97.10;;;;;;5073813;28;20164;-80
2022/08/01 11:44:03;;;;;;;1.92;0.90;;;25.60;97.10;;;;;;5073241;28;19963;-80
2022/08/01 11:46:48;;;;;;;1.48;1.10;;;;;;;;;;5071555;28;20113;-80
2022/08/01 11:49:34;;;;;;;1.60;0.93;;;25.60;96.60;;;;;;5072493;28;20044;-80
2022/08/01 11:52:27;;;;;;;1.58;1.02;;;25.70;96.80;;;;;;5103506;27;20047;-80
2022/08/01 11:54:56;;;;;;;2.67;1.02;;;25.70;96.70;;;;;;5060982;28;20047;-80
2022/08/01 11:57:30;;;;;;;3.05;1.10;;;25.80;96.80;;;;;;5055547;28;20098;-80
2022/08/01 11:59:58;;;;;;;1.48;0.80;;;26.00;97.00;;;;;;5068979;28;20041;-80
2022/08/01 12:02:31;;;;;;;1.35;1.05;;;26.20;96.60;;;;;;5072303;28;20084;-80
2022/08/01 12:04:57;;;;;;;1.10;0.90;;;26.30;96.40;;;;;;5054291;28;20052;-80
2022/08/01 12:07:24;;;;;;;2.25;0.88;;;26.30;96.20;;;;;;5085915;28;20188;-80
2022/08/01 12:10:00;;;;;;;2.00;0.90;;;26.20;95.80;;;;;;5104316;27;20988;-80
2022/08/01 12:12:27;;;;;;;3.05;1.20;;;26.10;95.50;;;;;;5070686;28;20040;-80
2022/08/01 12:14:58;;;;;;;2.03;0.80;;;26.00;95.50;;;;;;5071985;28;20037;-80
2022/08/01 12:17:45;;;;;;;1.77;1.10;;;26.10;95.50;;;;;;5068264;28;20499;-80
2022/08/01 12:20:14;;;;;;;1.85;0.80;;;26.10;95.50;;;;;;5102974;27;20033;-80
2022/08/01 12:22:41;;;;;;;1.75;0.90;;;26.20;95.50;;;;;;5069829;28;20056;-80
2022/08/01 12:25:08;;;;;;;0.85;0.70;;;26.30;95.30;;;;;;5070706;28;20041;-80
2022/08/01 12:27:35;;;;;;;1.70;0.90;;;26.30;95.10;;;;;;5069599;28;20052;-80
2022/08/01 12:30:01;;;;;;;3.20;1.55;;;26.30;95.10;;;;;;5071101;28;20036;-80
2022/08/01 12:32:33;;;;;;;2.10;0.90;;;26.30;94.90;;;;;;5072381;28;20533;-80
2022/08/01 12:35:05;;;;;;;1.83;1.00;;;26.30;94.70;;;;;;5068930;28;20072;-80
2022/08/01 12:37:34;;;;;;;1.38;1.05;;;26.30;94.70;;;;;;5070254;28;20048;-80
2022/08/01 12:40:00;;;;;;;1.50;1.10;;;26.30;94.60;;;;;;5069532;28;20041;-80
2022/08/01 12:42:27;;;;;;;1.35;1.05;;;26.20;94.60;;;;;;5070639;28;20584;-80
2022/08/01 12:44:54;;;;;;;1.75;1.05;;;26.10;94.60;;;;;;5065177;28;20056;-80
2022/08/01 12:47:20;;;;;;;1.95;1.00;;;25.90;94.70;;;;;;5068757;28;20048;-80
2022/08/01 12:49:47;;;;;;;2.00;1.48;;;25.70;94.70;;;;;;5071616;28;20497;-80
2022/08/01 12:52:14;;;;;;;1.85;1.02;;;25.50;94.80;;;;;;5070452;28;20037;-80
2022/08/01 12:55:08;;;;;;;1.73;1.17;;;25.50;95.00;;;;;;5065975;28;20079;-79
2022/08/01 12:57:37;;;;;;;1.73;1.00;;;25.40;95.00;;;;;;5066618;28;20041;-80
2022/08/01 13:00:16;;;;;;;4.85;1.92;;;25.30;95.10;;;;;;5071082;28;20040;-80